Point Enterprise, Texas
Current Conditions -  °F | °C
As of 10:15 AM on Saturday 22 Nov 2014 (Local Time) from KLXY Reporting Station
Overcast Overcast  
Wind Chill: 58°   Ceiling: 400
Heat Index: 58°   Visibility: 7mi
Dew Point: 57°   Wind: 12mph
Humidity: 97%   Direction: 130°SE
Pressure: 30.05"   Gusts: 17mph
Location:  31.6887°N, 96.511°W
Report Text: KLXY 221615Z AUTO 13010G15KT 7SM OVC004 15/14 A3005 RMK AO2 LTG DSNT ALQS T01450140
Loading
Personal Weather Stations






























Interactive Weather Map New forecast layout! Learn more

10-Day Weather Forecast

Advertisements
Track Severe Weather on mobile